createdAt,value
2024-01-20T00:00:38.895Z,5.30
2024-01-20T00:03:06.092Z,6.10
2024-01-20T00:05:32.853Z,6.20
2024-01-20T00:07:59.785Z,6.60
2024-01-20T00:10:26.882Z,6.50
2024-01-20T00:12:53.695Z,5.30
2024-01-20T00:15:20.616Z,6.00
2024-01-20T00:17:49.082Z,6.00
2024-01-20T00:20:16.033Z,5.50
2024-01-20T00:22:44.090Z,5.60
2024-01-20T00:25:11.668Z,5.60
2024-01-20T00:27:39.508Z,6.00
2024-01-20T00:30:08.089Z,6.10
2024-01-20T00:32:35.282Z,5.60
2024-01-20T00:35:07.869Z,5.50
2024-01-20T00:37:37.818Z,5.90
2024-01-20T00:40:06.572Z,5.00
2024-01-20T00:42:33.558Z,5.50
2024-01-20T00:45:00.749Z,5.60
2024-01-20T00:47:27.959Z,5.30
2024-01-20T00:49:54.867Z,5.00
2024-01-20T00:52:22.211Z,5.90
2024-01-20T00:54:51.166Z,5.60
2024-01-20T00:57:18.259Z,5.10
2024-01-20T00:59:46.782Z,4.60
2024-01-20T01:02:16.945Z,4.80
2024-01-20T01:07:11.290Z,4.00
2024-01-20T01:09:38.166Z,5.10
2024-01-20T01:12:05.575Z,4.60
2024-01-20T01:14:32.437Z,4.10
2024-01-20T01:16:59.282Z,4.60
2024-01-20T01:19:26.285Z,4.50
2024-01-20T01:21:53.267Z,3.90
2024-01-20T01:24:20.095Z,4.60
2024-01-20T01:26:47.010Z,4.50
2024-01-20T01:29:14.156Z,4.30
2024-01-20T01:31:41.101Z,4.20
2024-01-20T01:34:08.021Z,3.80
2024-01-20T01:36:34.843Z,4.40
2024-01-20T01:39:01.827Z,5.20
2024-01-20T01:41:28.714Z,3.80
2024-01-20T01:43:55.616Z,3.80
2024-01-20T01:46:22.653Z,4.30
2024-01-20T01:48:49.595Z,3.90
2024-01-20T01:51:16.579Z,3.40
2024-01-20T01:53:44.177Z,3.90
2024-01-20T01:56:12.406Z,4.40
2024-01-20T01:58:39.641Z,4.20
2024-01-20T02:01:06.886Z,3.40
2024-01-20T02:03:34.122Z,3.60
2024-01-20T02:06:01.233Z,4.00
2024-01-20T02:08:28.630Z,3.40
2024-01-20T02:10:56.163Z,3.40
2024-01-20T02:13:23.351Z,4.00
2024-01-20T02:15:50.550Z,3.90
2024-01-20T02:18:17.478Z,3.50
2024-01-20T02:20:44.438Z,3.20
2024-01-20T02:23:11.229Z,3.50
2024-01-20T02:25:38.231Z,3.50
2024-01-20T02:28:05.220Z,3.80
2024-01-20T02:30:32.145Z,2.90
2024-01-20T02:32:59.451Z,3.80
2024-01-20T02:35:26.681Z,3.80
2024-01-20T02:37:53.511Z,3.20
2024-01-20T02:40:20.356Z,3.50
2024-01-20T02:42:47.218Z,3.60
2024-01-20T02:45:14.092Z,3.10
2024-01-20T02:47:40.959Z,3.20
2024-01-20T02:50:08.759Z,3.70
2024-01-20T02:52:35.549Z,3.60
2024-01-20T02:55:02.650Z,3.90
2024-01-20T02:57:29.974Z,3.40
2024-01-20T02:59:56.880Z,3.10
2024-01-20T03:02:25.057Z,3.00
2024-01-20T03:04:52.033Z,2.80
2024-01-20T03:07:19.285Z,3.60
2024-01-20T03:09:46.043Z,3.00
2024-01-20T03:12:13.464Z,3.00
2024-01-20T03:14:40.260Z,3.00
2024-01-20T03:17:07.168Z,3.00
2024-01-20T03:19:34.048Z,3.30
2024-01-20T03:22:00.828Z,3.00
2024-01-20T03:24:28.058Z,3.30
2024-01-20T03:26:59.469Z,3.40
2024-01-20T03:29:26.732Z,3.40
2024-01-20T03:31:53.794Z,3.10
2024-01-20T03:34:21.818Z,3.40
2024-01-20T03:36:49.197Z,3.10
2024-01-20T03:39:16.165Z,3.50
2024-01-20T03:41:43.047Z,3.90
2024-01-20T03:44:10.087Z,3.30
2024-01-20T03:46:36.925Z,3.70
2024-01-20T03:49:04.379Z,3.50
2024-01-20T03:51:31.486Z,3.50
2024-01-20T03:53:58.272Z,3.30
2024-01-20T03:56:25.094Z,3.40
2024-01-20T03:58:51.834Z,3.10
2024-01-20T04:01:18.595Z,4.20
2024-01-20T04:03:45.717Z,4.60
2024-01-20T04:06:12.673Z,4.00
2024-01-20T04:08:39.470Z,3.20
2024-01-20T04:11:06.621Z,3.50
2024-01-20T04:13:33.465Z,3.80
2024-01-20T04:16:00.267Z,3.70
2024-01-20T04:18:27.230Z,3.40
2024-01-20T04:20:54.142Z,4.00
2024-01-20T04:23:20.974Z,2.70
2024-01-20T04:25:48.915Z,3.80
2024-01-20T04:28:15.740Z,3.90
2024-01-20T04:30:42.504Z,3.80
2024-01-20T04:33:09.719Z,4.60
2024-01-20T04:35:36.613Z,3.60
2024-01-20T04:38:03.445Z,4.50
2024-01-20T04:40:30.521Z,4.60
2024-01-20T04:42:57.281Z,3.90
2024-01-20T04:45:24.117Z,4.00
2024-01-20T04:47:51.028Z,3.90
2024-01-20T04:50:17.836Z,4.40
2024-01-20T04:52:44.688Z,4.40
2024-01-20T04:55:11.528Z,4.40
2024-01-20T04:57:38.268Z,4.00
2024-01-20T05:00:07.062Z,4.10
2024-01-20T05:02:36.924Z,3.80
2024-01-20T05:05:04.672Z,4.10
2024-01-20T05:07:31.989Z,3.60
2024-01-20T05:09:59.135Z,4.50
2024-01-20T05:12:26.779Z,4.10
2024-01-20T05:14:54.482Z,3.60
2024-01-20T05:17:21.360Z,3.50
2024-01-20T05:19:48.829Z,3.40
2024-01-20T05:22:17.638Z,3.50
2024-01-20T05:24:44.659Z,2.20
2024-01-20T05:27:12.376Z,3.20
2024-01-20T05:29:39.210Z,3.60
2024-01-20T05:32:06.529Z,3.30
2024-01-20T05:34:33.530Z,3.40
2024-01-20T05:37:00.550Z,3.40
2024-01-20T05:39:27.494Z,3.80
2024-01-20T05:41:54.505Z,3.40
2024-01-20T05:44:21.469Z,3.60
2024-01-20T05:46:48.362Z,3.80
2024-01-20T05:49:15.556Z,3.40
2024-01-20T05:51:42.454Z,3.50
2024-01-20T05:54:09.879Z,3.30
2024-01-20T05:56:36.789Z,2.90
2024-01-20T05:59:04.079Z,4.20
2024-01-20T06:01:31.223Z,3.70
2024-01-20T06:03:58.023Z,4.10
2024-01-20T06:06:24.840Z,3.30
2024-01-20T06:08:51.677Z,3.80
2024-01-20T06:11:18.521Z,3.50
2024-01-20T06:13:45.358Z,3.60
2024-01-20T06:16:14.389Z,3.80
2024-01-20T06:18:41.208Z,3.20
2024-01-20T06:21:09.483Z,3.60
2024-01-20T06:23:37.125Z,4.50
2024-01-20T06:26:04.413Z,4.20
2024-01-20T06:28:31.533Z,3.70
2024-01-20T06:30:58.423Z,3.50
2024-01-20T06:33:25.357Z,3.50
2024-01-20T06:35:52.418Z,3.50
2024-01-20T06:38:19.177Z,3.40
2024-01-20T06:40:45.900Z,3.80
2024-01-20T06:43:12.585Z,3.50
2024-01-20T06:45:39.404Z,3.30
2024-01-20T06:48:06.787Z,3.80
2024-01-20T06:50:33.769Z,4.50
2024-01-20T06:53:00.591Z,4.30
2024-01-20T06:55:27.387Z,4.40
2024-01-20T06:57:54.180Z,4.10
2024-01-20T07:00:21.241Z,3.50
2024-01-20T07:02:47.973Z,3.80
2024-01-20T07:05:14.904Z,4.50
2024-01-20T07:07:42.580Z,4.00
2024-01-20T07:10:10.452Z,4.10
2024-01-20T07:12:37.938Z,3.80
2024-01-20T07:15:07.226Z,3.60
2024-01-20T07:17:35.889Z,4.50
2024-01-20T07:20:02.933Z,3.80
2024-01-20T07:22:30.218Z,5.50
2024-01-20T07:24:59.835Z,4.60
2024-01-20T07:27:26.867Z,5.00
2024-01-20T07:29:54.151Z,4.30
2024-01-20T07:32:20.929Z,4.50
2024-01-20T07:34:47.883Z,4.40
2024-01-20T07:37:16.442Z,4.90
2024-01-20T07:39:43.956Z,3.70
2024-01-20T07:42:11.980Z,5.20
2024-01-20T07:44:39.333Z,5.80
2024-01-20T07:47:06.080Z,5.90
2024-01-20T07:49:33.347Z,5.30
2024-01-20T07:52:00.227Z,5.70
2024-01-20T07:54:27.160Z,5.10
2024-01-20T07:56:53.951Z,5.70
2024-01-20T07:59:20.729Z,4.70
2024-01-20T08:01:48.028Z,4.80
2024-01-20T08:04:16.986Z,4.40
2024-01-20T08:06:44.005Z,4.80
2024-01-20T08:09:11.660Z,5.20
2024-01-20T08:11:38.576Z,4.90
2024-01-20T08:14:05.533Z,4.70
2024-01-20T08:16:32.402Z,5.10
2024-01-20T08:18:59.236Z,5.70
2024-01-20T08:21:26.641Z,4.40
2024-01-20T08:23:53.492Z,5.20
2024-01-20T08:26:20.321Z,5.30
2024-01-20T08:28:47.329Z,3.70
2024-01-20T08:31:14.166Z,4.30
2024-01-20T08:33:41.459Z,4.70
2024-01-20T08:36:09.372Z,4.50
2024-01-20T08:38:36.658Z,4.10
2024-01-20T08:41:10.889Z,5.30
2024-01-20T08:43:42.533Z,4.60
2024-01-20T08:46:10.282Z,4.20
2024-01-20T08:48:38.314Z,5.20
2024-01-20T08:51:05.473Z,4.40
2024-01-20T08:53:33.968Z,4.40
2024-01-20T08:56:02.438Z,5.10
2024-01-20T08:58:29.232Z,4.50
2024-01-20T09:00:56.900Z,4.60
2024-01-20T09:03:24.150Z,4.60
2024-01-20T09:05:51.066Z,4.40
2024-01-20T09:08:17.968Z,4.30
2024-01-20T09:10:44.986Z,5.00
2024-01-20T09:13:11.790Z,4.90
2024-01-20T09:15:38.818Z,4.80
2024-01-20T09:18:05.923Z,4.60
2024-01-20T09:20:32.984Z,4.70
2024-01-20T09:22:59.945Z,4.80
2024-01-20T09:25:27.083Z,4.60
2024-01-20T09:27:53.848Z,5.50
2024-01-20T09:30:21.157Z,4.80
2024-01-20T09:32:48.160Z,4.70
2024-01-20T09:35:14.988Z,4.70
2024-01-20T09:37:41.837Z,4.50
2024-01-20T09:40:10.435Z,4.00
2024-01-20T09:42:37.689Z,3.90
2024-01-20T09:45:05.835Z,4.00
2024-01-20T09:47:33.077Z,4.20
2024-01-20T09:50:00.042Z,4.20
2024-01-20T09:52:29.119Z,4.40
2024-01-20T09:55:09.967Z,4.20
2024-01-20T09:57:38.211Z,3.90
2024-01-20T10:00:06.629Z,4.70
2024-01-20T10:02:36.053Z,4.40
2024-01-20T10:05:08.252Z,4.50
2024-01-20T10:07:34.973Z,4.00
2024-01-20T10:10:01.979Z,4.40
2024-01-20T10:12:28.878Z,4.10
2024-01-20T10:14:55.984Z,4.80
2024-01-20T10:17:23.231Z,4.40
2024-01-20T10:19:49.996Z,5.00
2024-01-20T10:22:17.329Z,4.60
2024-01-20T10:24:54.358Z,5.70
2024-01-20T10:27:24.621Z,5.10
2024-01-20T10:29:51.778Z,5.00
2024-01-20T10:32:19.335Z,4.40
2024-01-20T10:34:46.271Z,4.60
2024-01-20T10:37:15.266Z,5.10
2024-01-20T10:39:46.646Z,5.10
2024-01-20T10:42:17.082Z,5.20
2024-01-20T10:44:54.407Z,4.80
2024-01-20T10:47:39.405Z,4.60
2024-01-20T10:50:08.381Z,6.10
2024-01-20T10:52:39.730Z,5.60
2024-01-20T10:55:06.763Z,5.10
2024-01-20T10:57:34.032Z,4.90
2024-01-20T11:00:02.709Z,5.30
2024-01-20T11:02:29.817Z,4.70
2024-01-20T11:04:56.860Z,4.20
2024-01-20T11:07:24.994Z,4.20
2024-01-20T11:09:58.506Z,4.30
2024-01-20T11:12:27.290Z,4.10
2024-01-20T11:14:59.235Z,4.10
2024-01-20T11:17:26.305Z,4.20
2024-01-20T11:19:53.161Z,3.80
2024-01-20T11:22:49.724Z,3.90
2024-01-20T11:25:18.769Z,3.00
2024-01-20T11:27:52.969Z,3.20
2024-01-20T11:30:28.010Z,2.80
2024-01-20T11:32:56.502Z,2.90
2024-01-20T11:35:23.611Z,2.90
2024-01-20T11:37:51.189Z,2.50
2024-01-20T11:40:18.103Z,2.30
2024-01-20T11:42:45.526Z,2.70
2024-01-20T11:45:13.076Z,2.50
2024-01-20T11:47:40.866Z,2.40
2024-01-20T11:50:08.505Z,2.00
2024-01-20T11:52:35.647Z,2.20
2024-01-20T11:55:03.163Z,2.60
2024-01-20T11:57:32.957Z,2.40
2024-01-20T12:02:29.158Z,2.50
2024-01-20T12:05:01.862Z,2.80
2024-01-20T12:07:31.815Z,1.90
2024-01-20T12:09:58.597Z,2.40
2024-01-20T12:12:26.640Z,2.30
2024-01-20T12:14:53.390Z,2.20
2024-01-20T12:17:23.523Z,2.60
2024-01-20T12:19:50.640Z,2.40
2024-01-20T12:22:17.740Z,2.40
2024-01-20T12:24:48.357Z,2.60
2024-01-20T12:27:16.647Z,2.50
2024-01-20T12:29:43.755Z,3.00
2024-01-20T12:32:11.466Z,3.10
2024-01-20T12:34:38.426Z,2.60
2024-01-20T12:37:07.470Z,3.10
2024-01-20T12:39:35.495Z,2.70
2024-01-20T12:42:02.303Z,2.90
2024-01-20T12:44:29.349Z,2.70
2024-01-20T12:46:56.316Z,3.20
2024-01-20T12:49:23.165Z,2.70
2024-01-20T12:51:50.032Z,2.80
2024-01-20T12:54:17.429Z,3.50
2024-01-20T12:56:46.485Z,3.40
2024-01-20T12:59:13.713Z,3.70
2024-01-20T13:01:40.775Z,3.50
2024-01-20T13:04:07.692Z,3.50
2024-01-20T13:06:34.527Z,3.90
2024-01-20T13:09:01.474Z,4.90
2024-01-20T13:11:29.500Z,4.10
2024-01-20T13:13:57.583Z,4.10
2024-01-20T13:16:24.364Z,4.70
2024-01-20T13:18:53.520Z,4.30
2024-01-20T13:21:20.661Z,4.60
2024-01-20T13:23:47.840Z,4.00
2024-01-20T13:26:14.494Z,4.20
2024-01-20T13:28:41.382Z,4.60
2024-01-20T13:31:08.217Z,4.20
2024-01-20T13:33:35.190Z,4.20
2024-01-20T13:36:02.038Z,4.60
2024-01-20T13:38:28.799Z,5.10
2024-01-20T13:40:55.485Z,6.00
2024-01-20T13:43:22.572Z,5.90
2024-01-20T13:45:49.496Z,6.40
2024-01-20T13:48:16.484Z,6.20
2024-01-20T13:50:43.762Z,6.80
2024-01-20T13:53:10.450Z,7.40
2024-01-20T13:55:38.442Z,6.90
2024-01-20T13:58:05.365Z,6.60
2024-01-20T14:00:32.105Z,5.10
2024-01-20T14:02:58.952Z,4.70
2024-01-20T14:05:25.800Z,4.20
2024-01-20T14:07:52.481Z,4.10
2024-01-20T14:10:19.268Z,4.30
2024-01-20T14:12:46.086Z,4.30
2024-01-20T14:15:12.932Z,4.10
2024-01-20T14:17:40.146Z,4.10
2024-01-20T14:20:08.207Z,4.10
2024-01-20T14:22:34.849Z,4.50
2024-01-20T14:25:05.542Z,4.10
2024-01-20T14:27:34.359Z,4.10
2024-01-20T14:30:01.157Z,4.70
2024-01-20T14:35:08.535Z,7.10
2024-01-20T14:37:35.239Z,6.40
2024-01-20T14:40:02.566Z,6.10
2024-01-20T14:42:29.693Z,6.60
2024-01-20T14:44:56.440Z,6.80
2024-01-20T14:47:24.420Z,8.10
2024-01-20T14:49:51.656Z,6.80
2024-01-20T14:52:18.445Z,8.30
2024-01-20T14:54:45.163Z,7.40
2024-01-20T14:57:12.345Z,7.90
2024-01-20T14:59:39.183Z,7.60
2024-01-20T15:02:08.590Z,6.50
2024-01-20T15:04:36.134Z,6.80
2024-01-20T15:07:05.098Z,6.70
2024-01-20T15:09:32.827Z,7.70
2024-01-20T15:11:59.758Z,7.60
2024-01-20T15:14:26.477Z,7.60
2024-01-20T15:16:53.170Z,8.30
2024-01-20T15:19:20.035Z,10.60
2024-01-20T15:21:46.698Z,9.40
2024-01-20T15:24:13.427Z,8.40
2024-01-20T15:26:41.515Z,7.90
2024-01-20T15:29:10.805Z,9.10
2024-01-20T15:31:37.755Z,8.50
2024-01-20T15:34:04.768Z,7.70
2024-01-20T15:36:31.737Z,7.60
2024-01-20T15:38:58.528Z,7.50
2024-01-20T15:41:25.475Z,7.20
2024-01-20T15:43:52.162Z,8.20
2024-01-20T15:46:18.833Z,7.80
2024-01-20T15:48:45.697Z,7.10
2024-01-20T15:51:12.813Z,7.30
2024-01-20T15:53:42.259Z,7.60
2024-01-20T15:56:11.421Z,7.80
2024-01-20T15:58:41.294Z,7.70
2024-01-20T16:01:08.069Z,7.20
2024-01-20T16:03:35.007Z,6.60
2024-01-20T16:06:02.011Z,7.60
2024-01-20T16:08:28.889Z,7.90
2024-01-20T16:10:55.622Z,9.90
2024-01-20T16:13:22.390Z,10.90
2024-01-20T16:15:49.239Z,9.60
2024-01-20T16:18:16.676Z,7.80
2024-01-20T16:20:43.718Z,8.90
2024-01-20T16:23:10.836Z,10.30
2024-01-20T16:25:38.251Z,9.80
2024-01-20T16:28:05.286Z,8.90
2024-01-20T16:30:33.290Z,9.00
2024-01-20T16:33:00.118Z,9.20
2024-01-20T16:35:26.767Z,8.90
2024-01-20T16:37:53.452Z,9.40
2024-01-20T16:40:20.253Z,9.60
2024-01-20T16:42:47.052Z,8.60
2024-01-20T16:45:13.913Z,9.60
2024-01-20T16:47:41.186Z,8.50
2024-01-20T16:50:08.102Z,8.20
2024-01-20T16:52:34.751Z,7.20
2024-01-20T16:55:14.439Z,7.60
2024-01-20T16:57:42.882Z,7.20
2024-01-20T17:00:11.847Z,9.00
2024-01-20T17:02:38.516Z,6.80
2024-01-20T17:05:05.500Z,7.60
2024-01-20T17:07:32.603Z,6.10
2024-01-20T17:09:59.364Z,6.50
2024-01-20T17:12:26.085Z,6.60
2024-01-20T17:14:52.938Z,6.70
2024-01-20T17:17:19.664Z,6.90
2024-01-20T17:19:46.639Z,8.20
2024-01-20T17:22:13.790Z,7.10
2024-01-20T17:24:40.519Z,6.70
2024-01-20T17:27:07.243Z,6.90
2024-01-20T17:29:34.092Z,7.90
2024-01-20T17:32:05.229Z,6.00
2024-01-20T17:34:33.872Z,8.60
2024-01-20T17:37:01.125Z,6.70
2024-01-20T17:39:29.661Z,8.90
2024-01-20T17:41:58.922Z,7.10
2024-01-20T17:44:25.892Z,7.70
2024-01-20T17:46:54.754Z,5.90
2024-01-20T17:49:22.614Z,6.50
2024-01-20T17:51:49.607Z,9.00
2024-01-20T17:54:16.682Z,7.70
2024-01-20T17:56:43.622Z,6.80
2024-01-20T17:59:10.596Z,6.60
2024-01-20T18:01:38.042Z,7.50
2024-01-20T18:04:05.285Z,7.00
2024-01-20T18:06:33.261Z,7.20
2024-01-20T18:09:00.497Z,7.00
2024-01-20T18:11:27.574Z,6.60
2024-01-20T18:13:55.320Z,5.80
2024-01-20T18:16:22.315Z,6.60
2024-01-20T18:18:49.122Z,6.80
2024-01-20T18:21:17.054Z,7.40
2024-01-20T18:23:44.007Z,6.10
2024-01-20T18:26:10.788Z,6.90
2024-01-20T18:28:37.640Z,5.50
2024-01-20T18:31:08.769Z,4.60
2024-01-20T18:33:37.043Z,6.90
2024-01-20T18:36:04.826Z,5.80
2024-01-20T18:38:32.653Z,7.40
2024-01-20T18:41:29.391Z,7.50
2024-01-20T18:43:56.600Z,7.60
2024-01-20T18:46:32.493Z,7.20
2024-01-20T18:48:59.369Z,6.40
2024-01-20T18:51:26.185Z,6.10
2024-01-20T18:53:53.313Z,6.40
2024-01-20T18:56:20.209Z,7.40
2024-01-20T18:58:47.250Z,6.50
2024-01-20T19:01:14.500Z,5.90
2024-01-20T19:03:42.041Z,6.60
2024-01-20T19:06:09.258Z,6.00
2024-01-20T19:08:38.434Z,6.60
2024-01-20T19:11:17.621Z,6.60
2024-01-20T19:13:44.434Z,5.60
2024-01-20T19:16:11.957Z,6.30
2024-01-20T19:18:47.469Z,5.30
2024-01-20T19:21:14.669Z,6.10
2024-01-20T19:23:56.017Z,5.50
2024-01-20T19:26:22.831Z,5.30
2024-01-20T19:28:49.641Z,5.10
2024-01-20T19:31:16.589Z,6.00
2024-01-20T19:33:48.360Z,6.50
2024-01-20T19:36:17.923Z,4.60
2024-01-20T19:38:44.708Z,5.00
2024-01-20T19:41:11.577Z,5.50
2024-01-20T19:43:39.514Z,5.00
2024-01-20T19:46:06.543Z,5.90
2024-01-20T19:48:37.307Z,6.10
2024-01-20T19:51:05.307Z,4.70
2024-01-20T19:53:32.131Z,5.30
2024-01-20T19:55:59.052Z,5.20
2024-01-20T19:58:26.892Z,5.70
2024-01-20T20:00:53.769Z,5.70
2024-01-20T20:03:21.010Z,6.90
2024-01-20T20:05:47.946Z,7.30
2024-01-20T20:08:16.143Z,6.20
2024-01-20T20:10:45.685Z,5.50
2024-01-20T20:13:12.468Z,5.40
2024-01-20T20:15:39.332Z,5.40
2024-01-20T20:18:06.786Z,5.70
2024-01-20T20:20:33.674Z,5.60
2024-01-20T20:23:00.399Z,5.60
2024-01-20T20:25:27.133Z,6.70
2024-01-20T20:27:54.017Z,6.20
2024-01-20T20:30:20.878Z,5.70
2024-01-20T20:32:48.226Z,7.20
2024-01-20T20:35:15.757Z,6.80
2024-01-20T20:37:42.566Z,5.60
2024-01-20T20:40:11.296Z,5.80
2024-01-20T20:42:38.203Z,5.20
2024-01-20T20:45:08.702Z,5.00
2024-01-20T20:47:36.857Z,4.90
2024-01-20T20:50:05.376Z,5.30
2024-01-20T20:52:32.657Z,4.70
2024-01-20T20:54:59.439Z,4.40
2024-01-20T20:57:26.724Z,4.70
2024-01-20T20:59:53.612Z,4.90
2024-01-20T21:02:22.813Z,5.10
2024-01-20T21:04:50.489Z,5.20
2024-01-20T21:07:19.275Z,5.00
2024-01-20T21:09:46.953Z,5.10
2024-01-20T21:12:13.901Z,5.60
2024-01-20T21:14:40.872Z,5.00
2024-01-20T21:17:10.754Z,5.00
2024-01-20T21:22:04.508Z,4.20
2024-01-20T21:24:32.832Z,4.30
2024-01-20T21:27:00.240Z,5.90
2024-01-20T21:29:26.911Z,5.40
2024-01-20T21:31:53.706Z,5.10
2024-01-20T21:34:20.463Z,4.60
2024-01-20T21:36:47.608Z,5.10
2024-01-20T21:39:14.839Z,5.60
2024-01-20T21:41:41.526Z,5.00
2024-01-20T21:44:08.614Z,5.00
2024-01-20T21:46:37.008Z,5.20
2024-01-20T21:49:05.489Z,4.80
2024-01-20T21:51:32.554Z,5.50
2024-01-20T21:53:59.309Z,6.20
2024-01-20T21:56:26.095Z,5.50
2024-01-20T21:58:53.473Z,5.40
2024-01-20T22:01:20.370Z,4.80
2024-01-20T22:06:15.681Z,4.90
2024-01-20T22:08:42.905Z,4.30
2024-01-20T22:11:09.772Z,4.80
2024-01-20T22:13:36.963Z,4.60
2024-01-20T22:16:03.943Z,5.10
2024-01-20T22:18:30.827Z,4.70
2024-01-20T22:20:58.725Z,4.60
2024-01-20T22:23:25.582Z,5.00
2024-01-20T22:25:52.469Z,4.50
2024-01-20T22:28:19.304Z,4.90
2024-01-20T22:30:46.167Z,4.40
2024-01-20T22:33:13.124Z,4.50
2024-01-20T22:35:40.058Z,4.50
2024-01-20T22:38:06.937Z,3.70
2024-01-20T22:40:33.897Z,4.60
2024-01-20T22:43:00.758Z,5.30
2024-01-20T22:45:27.642Z,4.80
2024-01-20T22:47:54.549Z,4.80
2024-01-20T22:50:21.429Z,4.50
2024-01-20T22:52:49.459Z,5.00
2024-01-20T22:55:17.960Z,5.20
2024-01-20T22:57:45.032Z,4.80
2024-01-20T23:00:14.403Z,4.50
2024-01-20T23:02:42.797Z,4.10
2024-01-20T23:05:10.339Z,4.70
2024-01-20T23:07:39.308Z,4.50
2024-01-20T23:10:06.465Z,5.00
2024-01-20T23:12:33.312Z,3.90
2024-01-20T23:15:00.630Z,4.80
2024-01-20T23:17:27.419Z,4.00
2024-01-20T23:19:54.420Z,3.80
2024-01-20T23:22:21.307Z,4.90
2024-01-20T23:24:48.233Z,5.10
2024-01-20T23:27:15.201Z,4.50
2024-01-20T23:29:42.522Z,4.00
2024-01-20T23:32:09.738Z,5.00
2024-01-20T23:34:36.586Z,4.00
2024-01-20T23:37:03.758Z,4.80
2024-01-20T23:39:30.598Z,4.70
2024-01-20T23:41:57.428Z,4.40
2024-01-20T23:44:24.299Z,4.40
2024-01-20T23:46:52.931Z,5.00
2024-01-20T23:49:19.939Z,4.90
2024-01-20T23:51:47.000Z,5.80
2024-01-20T23:54:13.930Z,4.90
2024-01-20T23:56:40.768Z,4.90
2024-01-20T23:59:09.379Z,5.10
